sensor_id;sensor_type;location;lat;lon;timestamp;temperature;humidity
35299;DHT22;21415;48.054;16.646;2022-12-01T00:00:51;10.40;51.20
35299;DHT22;21415;48.054;16.646;2022-12-01T00:03:17;10.30;51.20
35299;DHT22;21415;48.054;16.646;2022-12-01T00:05:43;10.20;51.30
35299;DHT22;21415;48.054;16.646;2022-12-01T00:08:08;10.20;51.40
35299;DHT22;21415;48.054;16.646;2022-12-01T00:10:34;10.10;51.40
35299;DHT22;21415;48.054;16.646;2022-12-01T00:13:02;10.10;51.50
35299;DHT22;21415;48.054;16.646;2022-12-01T00:15:31;10.10;51.60
35299;DHT22;21415;48.054;16.646;2022-12-01T00:17:59;10.00;51.60
35299;DHT22;21415;48.054;16.646;2022-12-01T00:20:26;10.00;51.60
35299;DHT22;21415;48.054;16.646;2022-12-01T00:22:51;10.00;51.70
35299;DHT22;21415;48.054;16.646;2022-12-01T00:25:18;10.00;51.70
35299;DHT22;21415;48.054;16.646;2022-12-01T00:27:49;9.90;51.70
35299;DHT22;21415;48.054;16.646;2022-12-01T00:30:16;10.00;51.70
35299;DHT22;21415;48.054;16.646;2022-12-01T00:32:43;9.90;51.60
35299;DHT22;21415;48.054;16.646;2022-12-01T00:35:09;9.90;51.60
35299;DHT22;21415;48.054;16.646;2022-12-01T00:37:36;9.90;51.50
35299;DHT22;21415;48.054;16.646;2022-12-01T00:40:04;9.90;52.10
35299;DHT22;21415;48.054;16.646;2022-12-01T00:42:30;9.90;51.50
35299;DHT22;21415;48.054;16.646;2022-12-01T00:44:56;9.80;51.40
35299;DHT22;21415;48.054;16.646;2022-12-01T00:47:22;9.80;51.50
35299;DHT22;21415;48.054;16.646;2022-12-01T00:49:48;9.80;51.50
35299;DHT22;21415;48.054;16.646;2022-12-01T00:52:15;9.80;51.60
35299;DHT22;21415;48.054;16.646;2022-12-01T00:54:42;9.70;51.70
35299;DHT22;21415;48.054;16.646;2022-12-01T00:57:08;9.70;51.80
35299;DHT22;21415;48.054;16.646;2022-12-01T00:59:34;9.70;51.70
35299;DHT22;21415;48.054;16.646;2022-12-01T01:02:01;9.70;51.70
35299;DHT22;21415;48.054;16.646;2022-12-01T01:04:31;9.70;51.70
35299;DHT22;21415;48.054;16.646;2022-12-01T01:06:57;9.70;51.70
35299;DHT22;21415;48.054;16.646;2022-12-01T01:09:23;9.70;51.70
35299;DHT22;21415;48.054;16.646;2022-12-01T01:11:51;9.70;51.80
35299;DHT22;21415;48.054;16.646;2022-12-01T01:14:16;9.90;52.00
35299;DHT22;21415;48.054;16.646;2022-12-01T01:16:42;9.70;51.90
35299;DHT22;21415;48.054;16.646;2022-12-01T01:19:08;9.70;51.80
35299;DHT22;21415;48.054;16.646;2022-12-01T01:21:34;9.80;51.80
35299;DHT22;21415;48.054;16.646;2022-12-01T01:24:00;9.80;51.70
35299;DHT22;21415;48.054;16.646;2022-12-01T01:26:30;9.80;51.80
35299;DHT22;21415;48.054;16.646;2022-12-01T01:28:58;9.80;51.60
35299;DHT22;21415;48.054;16.646;2022-12-01T01:31:26;9.90;51.70
35299;DHT22;21415;48.054;16.646;2022-12-01T01:33:54;9.90;51.60
35299;DHT22;21415;48.054;16.646;2022-12-01T01:36:19;9.90;51.50
35299;DHT22;21415;48.054;16.646;2022-12-01T01:38:46;9.90;51.40
35299;DHT22;21415;48.054;16.646;2022-12-01T01:41:12;9.90;51.50
35299;DHT22;21415;48.054;16.646;2022-12-01T01:43:51;9.90;51.50
35299;DHT22;21415;48.054;16.646;2022-12-01T01:46:26;9.90;51.50
35299;DHT22;21415;48.054;16.646;2022-12-01T01:49:07;9.90;51.30
35299;DHT22;21415;48.054;16.646;2022-12-01T01:51:41;9.90;51.30
35299;DHT22;21415;48.054;16.646;2022-12-01T01:54:14;9.90;51.30
35299;DHT22;21415;48.054;16.646;2022-12-01T01:56:47;9.90;51.30
35299;DHT22;21415;48.054;16.646;2022-12-01T01:59:16;9.90;51.10
35299;DHT22;21415;48.054;16.646;2022-12-01T02:01:43;9.90;51.20
35299;DHT22;21415;48.054;16.646;2022-12-01T02:04:10;9.90;51.20
35299;DHT22;21415;48.054;16.646;2022-12-01T02:06:37;9.80;51.10
35299;DHT22;21415;48.054;16.646;2022-12-01T02:09:03;9.80;51.10
35299;DHT22;21415;48.054;16.646;2022-12-01T02:11:48;9.80;51.00
35299;DHT22;21415;48.054;16.646;2022-12-01T02:28:29;9.60;50.90
35299;DHT22;21415;48.054;16.646;2022-12-01T02:33:54;9.50;50.90
35299;DHT22;21415;48.054;16.646;2022-12-01T02:37:21;9.40;50.90
35299;DHT22;21415;48.054;16.646;2022-12-01T02:42:13;9.40;50.90
35299;DHT22;21415;48.054;16.646;2022-12-01T02:45:04;9.30;50.90
35299;DHT22;21415;48.054;16.646;2022-12-01T02:47:32;9.30;51.00
35299;DHT22;21415;48.054;16.646;2022-12-01T02:49:59;9.30;51.00
35299;DHT22;21415;48.054;16.646;2022-12-01T02:52:26;9.30;51.00
35299;DHT22;21415;48.054;16.646;2022-12-01T02:54:53;9.30;51.10
35299;DHT22;21415;48.054;16.646;2022-12-01T02:57:22;9.20;51.00
35299;DHT22;21415;48.054;16.646;2022-12-01T02:59:52;9.20;51.30
35299;DHT22;21415;48.054;16.646;2022-12-01T03:02:34;9.20;51.00
35299;DHT22;21415;48.054;16.646;2022-12-01T03:05:09;9.20;51.00
35299;DHT22;21415;48.054;16.646;2022-12-01T03:07:59;9.20;51.00
35299;DHT22;21415;48.054;16.646;2022-12-01T03:16:00;9.10;51.00
35299;DHT22;21415;48.054;16.646;2022-12-01T03:18:35;9.10;51.00
35299;DHT22;21415;48.054;16.646;2022-12-01T03:23:32;9.20;51.20
35299;DHT22;21415;48.054;16.646;2022-12-01T03:26:01;9.10;51.10
35299;DHT22;21415;48.054;16.646;2022-12-01T03:28:31;9.10;51.00
35299;DHT22;21415;48.054;16.646;2022-12-01T03:31:01;9.20;51.10
35299;DHT22;21415;48.054;16.646;2022-12-01T03:33:35;9.20;51.00
35299;DHT22;21415;48.054;16.646;2022-12-01T03:38:34;9.20;50.90
35299;DHT22;21415;48.054;16.646;2022-12-01T03:41:08;9.20;51.00
35299;DHT22;21415;48.054;16.646;2022-12-01T03:43:40;9.20;50.90
35299;DHT22;21415;48.054;16.646;2022-12-01T03:46:22;9.20;50.80
35299;DHT22;21415;48.054;16.646;2022-12-01T03:48:49;9.20;50.80
35299;DHT22;21415;48.054;16.646;2022-12-01T03:51:31;9.20;50.90
35299;DHT22;21415;48.054;16.646;2022-12-01T03:54:04;9.10;50.80
35299;DHT22;21415;48.054;16.646;2022-12-01T03:56:36;9.20;50.90
35299;DHT22;21415;48.054;16.646;2022-12-01T03:59:05;9.20;50.80
35299;DHT22;21415;48.054;16.646;2022-12-01T04:01:32;9.20;50.90
35299;DHT22;21415;48.054;16.646;2022-12-01T04:04:25;9.20;50.90
35299;DHT22;21415;48.054;16.646;2022-12-01T04:06:51;9.20;50.80
35299;DHT22;21415;48.054;16.646;2022-12-01T04:09:17;9.30;51.00
35299;DHT22;21415;48.054;16.646;2022-12-01T04:11:42;9.20;50.90
35299;DHT22;21415;48.054;16.646;2022-12-01T04:14:27;9.20;50.90
35299;DHT22;21415;48.054;16.646;2022-12-01T04:16:53;9.20;50.90
35299;DHT22;21415;48.054;16.646;2022-12-01T04:19:19;9.30;51.00
35299;DHT22;21415;48.054;16.646;2022-12-01T04:21:45;9.30;50.90
35299;DHT22;21415;48.054;16.646;2022-12-01T04:24:11;9.20;50.80
35299;DHT22;21415;48.054;16.646;2022-12-01T04:26:37;9.20;50.80
35299;DHT22;21415;48.054;16.646;2022-12-01T04:29:07;9.30;50.80
35299;DHT22;21415;48.054;16.646;2022-12-01T04:31:33;9.30;50.80
35299;DHT22;21415;48.054;16.646;2022-12-01T04:33:59;9.30;50.80
35299;DHT22;21415;48.054;16.646;2022-12-01T04:36:26;9.30;50.80
35299;DHT22;21415;48.054;16.646;2022-12-01T04:38:54;9.30;50.90
35299;DHT22;21415;48.054;16.646;2022-12-01T04:41:20;9.30;50.80
35299;DHT22;21415;48.054;16.646;2022-12-01T04:43:45;9.30;50.70
35299;DHT22;21415;48.054;16.646;2022-12-01T04:46:11;9.30;50.70
35299;DHT22;21415;48.054;16.646;2022-12-01T04:48:38;9.30;50.70
35299;DHT22;21415;48.054;16.646;2022-12-01T04:51:05;9.30;51.10
35299;DHT22;21415;48.054;16.646;2022-12-01T04:53:32;9.30;50.60
35299;DHT22;21415;48.054;16.646;2022-12-01T04:56:01;9.30;50.60
35299;DHT22;21415;48.054;16.646;2022-12-01T04:58:29;9.30;50.50
35299;DHT22;21415;48.054;16.646;2022-12-01T05:01:00;9.30;50.50
35299;DHT22;21415;48.054;16.646;2022-12-01T05:03:27;9.30;50.40
35299;DHT22;21415;48.054;16.646;2022-12-01T05:06:01;9.30;50.50
35299;DHT22;21415;48.054;16.646;2022-12-01T05:08:27;9.30;50.40
35299;DHT22;21415;48.054;16.646;2022-12-01T05:10:56;9.30;50.60
35299;DHT22;21415;48.054;16.646;2022-12-01T05:13:22;9.30;50.60
35299;DHT22;21415;48.054;16.646;2022-12-01T05:15:48;9.50;50.70
35299;DHT22;21415;48.054;16.646;2022-12-01T05:18:14;9.30;50.60
35299;DHT22;21415;48.054;16.646;2022-12-01T05:20:40;9.30;50.60
35299;DHT22;21415;48.054;16.646;2022-12-01T05:23:25;9.30;50.60
35299;DHT22;21415;48.054;16.646;2022-12-01T05:25:52;9.30;50.70
35299;DHT22;21415;48.054;16.646;2022-12-01T05:28:18;9.30;50.70
35299;DHT22;21415;48.054;16.646;2022-12-01T05:30:44;9.40;51.20
35299;DHT22;21415;48.054;16.646;2022-12-01T05:33:10;9.40;50.70
35299;DHT22;21415;48.054;16.646;2022-12-01T05:35:36;9.40;50.60
35299;DHT22;21415;48.054;16.646;2022-12-01T05:38:02;9.40;50.60
35299;DHT22;21415;48.054;16.646;2022-12-01T05:40:28;9.40;50.70
35299;DHT22;21415;48.054;16.646;2022-12-01T05:42:56;9.40;50.60
35299;DHT22;21415;48.054;16.646;2022-12-01T05:45:22;9.40;50.60
35299;DHT22;21415;48.054;16.646;2022-12-01T05:47:48;9.40;50.40
35299;DHT22;21415;48.054;16.646;2022-12-01T05:50:14;9.40;50.40
35299;DHT22;21415;48.054;16.646;2022-12-01T05:52:41;9.40;50.40
35299;DHT22;21415;48.054;16.646;2022-12-01T05:55:06;9.40;50.40
35299;DHT22;21415;48.054;16.646;2022-12-01T05:57:32;9.40;50.50
35299;DHT22;21415;48.054;16.646;2022-12-01T05:59:58;9.40;50.50
35299;DHT22;21415;48.054;16.646;2022-12-01T06:02:25;9.40;50.50
35299;DHT22;21415;48.054;16.646;2022-12-01T06:04:53;9.40;50.60
35299;DHT22;21415;48.054;16.646;2022-12-01T06:07:19;9.40;50.60
35299;DHT22;21415;48.054;16.646;2022-12-01T06:09:46;9.40;50.60
35299;DHT22;21415;48.054;16.646;2022-12-01T06:12:12;9.30;50.60
35299;DHT22;21415;48.054;16.646;2022-12-01T06:14:38;9.30;51.10
35299;DHT22;21415;48.054;16.646;2022-12-01T06:17:04;9.40;50.60
35299;DHT22;21415;48.054;16.646;2022-12-01T06:19:29;9.40;50.60
35299;DHT22;21415;48.054;16.646;2022-12-01T06:21:56;9.40;50.60
35299;DHT22;21415;48.054;16.646;2022-12-01T06:24:22;9.40;50.60
35299;DHT22;21415;48.054;16.646;2022-12-01T06:26:48;9.40;50.60
35299;DHT22;21415;48.054;16.646;2022-12-01T06:29:14;9.60;50.80
35299;DHT22;21415;48.054;16.646;2022-12-01T06:31:40;9.40;50.70
35299;DHT22;21415;48.054;16.646;2022-12-01T06:34:06;9.40;50.70
35299;DHT22;21415;48.054;16.646;2022-12-01T06:36:31;9.40;50.60
35299;DHT22;21415;48.054;16.646;2022-12-01T06:38:57;9.40;50.60
35299;DHT22;21415;48.054;16.646;2022-12-01T06:41:23;9.60;50.70
35299;DHT22;21415;48.054;16.646;2022-12-01T06:43:48;9.40;50.50
35299;DHT22;21415;48.054;16.646;2022-12-01T06:46:14;9.40;50.50
35299;DHT22;21415;48.054;16.646;2022-12-01T06:48:40;9.40;50.50
35299;DHT22;21415;48.054;16.646;2022-12-01T06:51:06;9.40;50.50
35299;DHT22;21415;48.054;16.646;2022-12-01T06:53:31;9.40;50.40
35299;DHT22;21415;48.054;16.646;2022-12-01T06:56:02;9.40;50.40
35299;DHT22;21415;48.054;16.646;2022-12-01T06:58:28;9.40;50.50
35299;DHT22;21415;48.054;16.646;2022-12-01T07:00:55;9.30;50.50
35299;DHT22;21415;48.054;16.646;2022-12-01T07:03:23;9.30;50.50
35299;DHT22;21415;48.054;16.646;2022-12-01T07:05:58;9.30;50.60
35299;DHT22;21415;48.054;16.646;2022-12-01T07:08:25;9.30;50.70
35299;DHT22;21415;48.054;16.646;2022-12-01T07:11:02;9.20;50.80
35299;DHT22;21415;48.054;16.646;2022-12-01T07:13:28;9.30;50.80
35299;DHT22;21415;48.054;16.646;2022-12-01T07:15:54;9.30;50.80
35299;DHT22;21415;48.054;16.646;2022-12-01T07:18:19;9.30;50.90
35299;DHT22;21415;48.054;16.646;2022-12-01T07:20:45;9.30;50.90
35299;DHT22;21415;48.054;16.646;2022-12-01T07:23:11;9.40;50.90
35299;DHT22;21415;48.054;16.646;2022-12-01T07:25:37;9.40;50.80
35299;DHT22;21415;48.054;16.646;2022-12-01T07:28:03;9.40;50.80
35299;DHT22;21415;48.054;16.646;2022-12-01T07:30:28;9.40;50.70
35299;DHT22;21415;48.054;16.646;2022-12-01T07:32:54;9.40;50.70
35299;DHT22;21415;48.054;16.646;2022-12-01T07:35:21;9.40;50.70
35299;DHT22;21415;48.054;16.646;2022-12-01T07:37:46;9.40;50.70
35299;DHT22;21415;48.054;16.646;2022-12-01T07:40:12;9.50;50.80
35299;DHT22;21415;48.054;16.646;2022-12-01T07:42:42;9.40;50.80
35299;DHT22;21415;48.054;16.646;2022-12-01T07:45:08;9.50;50.80
35299;DHT22;21415;48.054;16.646;2022-12-01T07:47:34;9.60;51.00
35299;DHT22;21415;48.054;16.646;2022-12-01T07:49:59;9.50;50.90
35299;DHT22;21415;48.054;16.646;2022-12-01T07:52:25;9.60;50.70
35299;DHT22;21415;48.054;16.646;2022-12-01T07:54:51;9.60;50.50
35299;DHT22;21415;48.054;16.646;2022-12-01T07:57:17;9.60;50.50
35299;DHT22;21415;48.054;16.646;2022-12-01T07:59:45;9.60;50.60
35299;DHT22;21415;48.054;16.646;2022-12-01T08:02:10;9.60;50.60
35299;DHT22;21415;48.054;16.646;2022-12-01T08:04:36;9.60;50.60
35299;DHT22;21415;48.054;16.646;2022-12-01T08:07:02;9.60;50.50
35299;DHT22;21415;48.054;16.646;2022-12-01T08:09:28;9.60;50.40
35299;DHT22;21415;48.054;16.646;2022-12-01T08:11:54;9.60;50.40
35299;DHT22;21415;48.054;16.646;2022-12-01T08:14:20;9.60;50.50
35299;DHT22;21415;48.054;16.646;2022-12-01T08:16:47;9.60;50.50
35299;DHT22;21415;48.054;16.646;2022-12-01T08:19:13;9.60;50.50
35299;DHT22;21415;48.054;16.646;2022-12-01T08:21:39;9.60;50.40
35299;DHT22;21415;48.054;16.646;2022-12-01T08:24:05;9.60;50.50
35299;DHT22;21415;48.054;16.646;2022-12-01T08:26:31;9.70;50.60
35299;DHT22;21415;48.054;16.646;2022-12-01T08:28:57;9.70;50.60
35299;DHT22;21415;48.054;16.646;2022-12-01T08:31:26;9.70;50.60
35299;DHT22;21415;48.054;16.646;2022-12-01T08:33:53;9.70;50.60
35299;DHT22;21415;48.054;16.646;2022-12-01T08:36:20;9.70;50.60
35299;DHT22;21415;48.054;16.646;2022-12-01T08:38:48;9.80;50.60
35299;DHT22;21415;48.054;16.646;2022-12-01T08:41:15;9.80;50.70
35299;DHT22;21415;48.054;16.646;2022-12-01T08:43:41;9.90;50.80
35299;DHT22;21415;48.054;16.646;2022-12-01T08:46:10;9.90;50.70
35299;DHT22;21415;48.054;16.646;2022-12-01T08:48:35;9.90;50.60
35299;DHT22;21415;48.054;16.646;2022-12-01T08:51:07;10.10;50.60
35299;DHT22;21415;48.054;16.646;2022-12-01T08:53:35;10.10;50.50
35299;DHT22;21415;48.054;16.646;2022-12-01T08:56:07;10.10;50.30
35299;DHT22;21415;48.054;16.646;2022-12-01T08:58:36;10.10;50.10
35299;DHT22;21415;48.054;16.646;2022-12-01T09:01:04;10.10;49.90
35299;DHT22;21415;48.054;16.646;2022-12-01T09:03:30;10.10;49.90
35299;DHT22;21415;48.054;16.646;2022-12-01T09:06:04;10.10;50.00
35299;DHT22;21415;48.054;16.646;2022-12-01T09:08:30;10.10;49.90
35299;DHT22;21415;48.054;16.646;2022-12-01T09:10:57;10.10;50.00
35299;DHT22;21415;48.054;16.646;2022-12-01T09:13:23;10.10;50.00
35299;DHT22;21415;48.054;16.646;2022-12-01T09:16:05;10.10;50.00
35299;DHT22;21415;48.054;16.646;2022-12-01T09:18:32;10.00;49.70
35299;DHT22;21415;48.054;16.646;2022-12-01T09:20:58;10.00;50.00
35299;DHT22;21415;48.054;16.646;2022-12-01T09:23:25;10.10;50.10
35299;DHT22;21415;48.054;16.646;2022-12-01T09:25:51;10.10;50.10
35299;DHT22;21415;48.054;16.646;2022-12-01T09:28:17;9.90;50.00
35299;DHT22;21415;48.054;16.646;2022-12-01T09:30:43;9.90;50.10
35299;DHT22;21415;48.054;16.646;2022-12-01T09:33:09;9.90;50.20
35299;DHT22;21415;48.054;16.646;2022-12-01T09:35:35;9.90;50.10
35299;DHT22;21415;48.054;16.646;2022-12-01T09:38:01;9.90;50.00
35299;DHT22;21415;48.054;16.646;2022-12-01T09:40:35;9.90;50.20
35299;DHT22;21415;48.054;16.646;2022-12-01T09:43:05;9.80;50.00
35299;DHT22;21415;48.054;16.646;2022-12-01T09:45:36;9.80;50.10
35299;DHT22;21415;48.054;16.646;2022-12-01T09:48:05;9.80;50.20
35299;DHT22;21415;48.054;16.646;2022-12-01T09:50:32;9.80;50.20
35299;DHT22;21415;48.054;16.646;2022-12-01T09:53:05;9.80;50.30
35299;DHT22;21415;48.054;16.646;2022-12-01T09:55:33;9.70;50.30
35299;DHT22;21415;48.054;16.646;2022-12-01T09:58:01;9.70;50.40
35299;DHT22;21415;48.054;16.646;2022-12-01T10:00:34;9.70;50.40
35299;DHT22;21415;48.054;16.646;2022-12-01T10:05:54;9.70;50.40
35299;DHT22;21415;48.054;16.646;2022-12-01T10:08:26;9.80;50.60
35299;DHT22;21415;48.054;16.646;2022-12-01T10:10:57;9.70;50.60
35299;DHT22;21415;48.054;16.646;2022-12-01T10:13:26;9.70;50.60
35299;DHT22;21415;48.054;16.646;2022-12-01T10:15:54;9.70;50.70
35299;DHT22;21415;48.054;16.646;2022-12-01T10:26:31;9.80;51.00
35299;DHT22;21415;48.054;16.646;2022-12-01T10:29:22;9.80;50.90
35299;DHT22;21415;48.054;16.646;2022-12-01T10:34:38;10.00;50.80
35299;DHT22;21415;48.054;16.646;2022-12-01T10:37:16;10.00;50.90
35299;DHT22;21415;48.054;16.646;2022-12-01T10:39:45;10.00;50.80
35299;DHT22;21415;48.054;16.646;2022-12-01T10:42:40;10.10;50.80
35299;DHT22;21415;48.054;16.646;2022-12-01T10:45:20;10.10;50.60
35299;DHT22;21415;48.054;16.646;2022-12-01T10:50:31;10.10;50.50
35299;DHT22;21415;48.054;16.646;2022-12-01T10:52:56;10.20;50.60
35299;DHT22;21415;48.054;16.646;2022-12-01T10:55:23;10.10;50.70
35299;DHT22;21415;48.054;16.646;2022-12-01T10:57:53;10.20;50.80
35299;DHT22;21415;48.054;16.646;2022-12-01T11:00:22;10.20;50.80
35299;DHT22;21415;48.054;16.646;2022-12-01T11:02:48;10.20;50.80
35299;DHT22;21415;48.054;16.646;2022-12-01T11:05:25;10.20;50.80
35299;DHT22;21415;48.054;16.646;2022-12-01T11:07:52;10.20;50.60
35299;DHT22;21415;48.054;16.646;2022-12-01T11:10:22;10.30;50.90
35299;DHT22;21415;48.054;16.646;2022-12-01T11:13:11;10.20;50.70
35299;DHT22;21415;48.054;16.646;2022-12-01T11:15:50;10.30;50.50
35299;DHT22;21415;48.054;16.646;2022-12-01T11:18:22;10.30;50.50
35299;DHT22;21415;48.054;16.646;2022-12-01T11:23:29;10.30;50.40
35299;DHT22;21415;48.054;16.646;2022-12-01T11:28:26;10.40;50.70
35299;DHT22;21415;48.054;16.646;2022-12-01T11:30:57;10.40;50.60
35299;DHT22;21415;48.054;16.646;2022-12-01T11:33:24;10.40;50.60
35299;DHT22;21415;48.054;16.646;2022-12-01T11:35:51;10.50;50.70
35299;DHT22;21415;48.054;16.646;2022-12-01T11:38:22;10.40;50.60
35299;DHT22;21415;48.054;16.646;2022-12-01T11:40:54;10.40;50.50
35299;DHT22;21415;48.054;16.646;2022-12-01T11:43:25;10.50;50.50
35299;DHT22;21415;48.054;16.646;2022-12-01T11:45:53;10.50;50.50
35299;DHT22;21415;48.054;16.646;2022-12-01T11:48:26;10.50;50.60
35299;DHT22;21415;48.054;16.646;2022-12-01T11:53:44;10.50;50.50
35299;DHT22;21415;48.054;16.646;2022-12-01T11:56:23;10.50;50.70
35299;DHT22;21415;48.054;16.646;2022-12-01T11:58:56;10.50;50.70
35299;DHT22;21415;48.054;16.646;2022-12-01T12:10:30;10.60;50.60
35299;DHT22;21415;48.054;16.646;2022-12-01T12:16:16;10.70;50.70
35299;DHT22;21415;48.054;16.646;2022-12-01T12:35:29;10.90;50.50
35299;DHT22;21415;48.054;16.646;2022-12-01T12:41:17;10.90;50.70
35299;DHT22;21415;48.054;16.646;2022-12-01T12:52:05;10.90;50.10
35299;DHT22;21415;48.054;16.646;2022-12-01T12:54:41;10.90;50.10
35299;DHT22;21415;48.054;16.646;2022-12-01T12:57:34;10.90;50.30
35299;DHT22;21415;48.054;16.646;2022-12-01T13:00:17;10.90;50.20
35299;DHT22;21415;48.054;16.646;2022-12-01T13:02:58;10.90;50.10
35299;DHT22;21415;48.054;16.646;2022-12-01T13:05:34;10.90;50.30
35299;DHT22;21415;48.054;16.646;2022-12-01T13:08:49;10.90;50.40
35299;DHT22;21415;48.054;16.646;2022-12-01T13:11:02;10.90;50.50
35299;DHT22;21415;48.054;16.646;2022-12-01T13:13:46;10.90;50.50
35299;DHT22;21415;48.054;16.646;2022-12-01T13:16:33;10.90;50.30
35299;DHT22;21415;48.054;16.646;2022-12-01T13:21:45;11.00;50.60
35299;DHT22;21415;48.054;16.646;2022-12-01T13:24:15;11.00;50.40
35299;DHT22;21415;48.054;16.646;2022-12-01T13:26:46;11.00;50.50
35299;DHT22;21415;48.054;16.646;2022-12-01T13:29:16;11.00;50.50
35299;DHT22;21415;48.054;16.646;2022-12-01T13:31:47;11.00;50.50
35299;DHT22;21415;48.054;16.646;2022-12-01T13:36:55;11.10;50.10
35299;DHT22;21415;48.054;16.646;2022-12-01T13:39:23;11.20;50.40
35299;DHT22;21415;48.054;16.646;2022-12-01T13:42:02;11.20;50.30
35299;DHT22;21415;48.054;16.646;2022-12-01T13:44:57;11.20;50.20
35299;DHT22;21415;48.054;16.646;2022-12-01T13:47:37;11.20;50.30
35299;DHT22;21415;48.054;16.646;2022-12-01T13:50:36;11.20;50.20
35299;DHT22;21415;48.054;16.646;2022-12-01T14:03:52;11.20;50.00
35299;DHT22;21415;48.054;16.646;2022-12-01T14:06:27;11.20;50.00
35299;DHT22;21415;48.054;16.646;2022-12-01T14:09:23;11.20;50.00
35299;DHT22;21415;48.054;16.646;2022-12-01T14:12:15;11.20;50.00
35299;DHT22;21415;48.054;16.646;2022-12-01T14:17:59;11.10;49.90
35299;DHT22;21415;48.054;16.646;2022-12-01T14:20:26;11.10;50.00
35299;DHT22;21415;48.054;16.646;2022-12-01T14:36:43;10.90;50.40
35299;DHT22;21415;48.054;16.646;2022-12-01T14:39:40;10.80;50.50
35299;DHT22;21415;48.054;16.646;2022-12-01T14:45:24;10.80;50.70
35299;DHT22;21415;48.054;16.646;2022-12-01T14:47:58;10.80;50.70
35299;DHT22;21415;48.054;16.646;2022-12-01T14:50:42;10.90;50.70
35299;DHT22;21415;48.054;16.646;2022-12-01T14:53:30;10.90;50.70
35299;DHT22;21415;48.054;16.646;2022-12-01T14:56:07;10.90;50.70
35299;DHT22;21415;48.054;16.646;2022-12-01T14:58:34;10.90;50.70
35299;DHT22;21415;48.054;16.646;2022-12-01T15:01:11;10.90;50.60
35299;DHT22;21415;48.054;16.646;2022-12-01T15:03:39;10.90;50.60
35299;DHT22;21415;48.054;16.646;2022-12-01T15:06:06;10.90;50.60
35299;DHT22;21415;48.054;16.646;2022-12-01T15:08:34;10.90;50.70
35299;DHT22;21415;48.054;16.646;2022-12-01T15:11:04;10.80;50.60
35299;DHT22;21415;48.054;16.646;2022-12-01T15:13:32;10.80;50.60
35299;DHT22;21415;48.054;16.646;2022-12-01T15:16:12;10.90;50.70
35299;DHT22;21415;48.054;16.646;2022-12-01T15:18:39;10.80;50.60
35299;DHT22;21415;48.054;16.646;2022-12-01T15:21:13;10.80;50.60
35299;DHT22;21415;48.054;16.646;2022-12-01T15:24:01;10.90;50.60
35299;DHT22;21415;48.054;16.646;2022-12-01T15:26:32;10.90;50.50
35299;DHT22;21415;48.054;16.646;2022-12-01T15:29:13;10.90;50.60
35299;DHT22;21415;48.054;16.646;2022-12-01T15:31:45;10.90;50.50
35299;DHT22;21415;48.054;16.646;2022-12-01T15:34:36;10.90;50.50
35299;DHT22;21415;48.054;16.646;2022-12-01T15:37:03;10.90;50.50
35299;DHT22;21415;48.054;16.646;2022-12-01T15:39:36;10.90;50.40
35299;DHT22;21415;48.054;16.646;2022-12-01T15:42:03;10.90;50.40
35299;DHT22;21415;48.054;16.646;2022-12-01T15:44:35;11.00;50.40
35299;DHT22;21415;48.054;16.646;2022-12-01T15:49:57;10.90;50.40
35299;DHT22;21415;48.054;16.646;2022-12-01T15:52:23;10.90;50.30
35299;DHT22;21415;48.054;16.646;2022-12-01T15:54:49;11.10;50.30
35299;DHT22;21415;48.054;16.646;2022-12-01T15:57:18;10.90;50.20
35299;DHT22;21415;48.054;16.646;2022-12-01T15:59:46;10.90;50.10
35299;DHT22;21415;48.054;16.646;2022-12-01T16:02:23;10.90;50.10
35299;DHT22;21415;48.054;16.646;2022-12-01T16:04:59;10.90;50.10
35299;DHT22;21415;48.054;16.646;2022-12-01T16:07:34;10.90;50.00
35299;DHT22;21415;48.054;16.646;2022-12-01T16:10:02;10.80;50.10
35299;DHT22;21415;48.054;16.646;2022-12-01T16:12:33;10.80;50.10
35299;DHT22;21415;48.054;16.646;2022-12-01T16:17:27;10.80;50.00
35299;DHT22;21415;48.054;16.646;2022-12-01T16:22:46;10.80;49.90
35299;DHT22;21415;48.054;16.646;2022-12-01T16:25:20;10.80;50.00
35299;DHT22;21415;48.054;16.646;2022-12-01T16:27:51;10.80;49.90
35299;DHT22;21415;48.054;16.646;2022-12-01T16:30:21;10.80;50.00
35299;DHT22;21415;48.054;16.646;2022-12-01T16:32:47;10.80;49.90
35299;DHT22;21415;48.054;16.646;2022-12-01T16:37:45;10.70;49.90
35299;DHT22;21415;48.054;16.646;2022-12-01T16:40:12;10.70;50.00
35299;DHT22;21415;48.054;16.646;2022-12-01T16:42:38;10.70;50.00
35299;DHT22;21415;48.054;16.646;2022-12-01T16:45:04;10.80;50.00
35299;DHT22;21415;48.054;16.646;2022-12-01T16:47:30;10.60;50.00
35299;DHT22;21415;48.054;16.646;2022-12-01T16:49:57;10.60;50.00
35299;DHT22;21415;48.054;16.646;2022-12-01T16:52:22;10.60;50.00
35299;DHT22;21415;48.054;16.646;2022-12-01T16:54:48;10.60;50.00
35299;DHT22;21415;48.054;16.646;2022-12-01T16:57:14;10.60;50.10
35299;DHT22;21415;48.054;16.646;2022-12-01T16:59:42;10.50;50.00
35299;DHT22;21415;48.054;16.646;2022-12-01T17:02:09;10.50;50.00
35299;DHT22;21415;48.054;16.646;2022-12-01T17:04:35;10.50;50.00
35299;DHT22;21415;48.054;16.646;2022-12-01T17:07:01;10.50;50.00
35299;DHT22;21415;48.054;16.646;2022-12-01T17:09:28;10.40;50.00
35299;DHT22;21415;48.054;16.646;2022-12-01T17:11:54;10.40;50.00
35299;DHT22;21415;48.054;16.646;2022-12-01T17:14:21;10.30;50.00
35299;DHT22;21415;48.054;16.646;2022-12-01T17:16:47;10.30;50.00
35299;DHT22;21415;48.054;16.646;2022-12-01T17:19:13;10.30;50.00
35299;DHT22;21415;48.054;16.646;2022-12-01T17:21:40;10.20;50.00
35299;DHT22;21415;48.054;16.646;2022-12-01T17:24:06;10.20;49.90
35299;DHT22;21415;48.054;16.646;2022-12-01T17:26:31;10.20;49.90
35299;DHT22;21415;48.054;16.646;2022-12-01T17:28:57;10.20;50.00
35299;DHT22;21415;48.054;16.646;2022-12-01T17:31:23;10.20;49.90
35299;DHT22;21415;48.054;16.646;2022-12-01T17:33:49;10.10;49.90
35299;DHT22;21415;48.054;16.646;2022-12-01T17:36:16;10.10;49.90
35299;DHT22;21415;48.054;16.646;2022-12-01T17:38:43;10.10;49.90
35299;DHT22;21415;48.054;16.646;2022-12-01T17:41:18;10.00;49.90
35299;DHT22;21415;48.054;16.646;2022-12-01T17:43:49;10.00;49.90
35299;DHT22;21415;48.054;16.646;2022-12-01T17:46:15;10.00;50.00
35299;DHT22;21415;48.054;16.646;2022-12-01T17:48:43;9.90;49.90
35299;DHT22;21415;48.054;16.646;2022-12-01T17:51:11;9.90;50.00
35299;DHT22;21415;48.054;16.646;2022-12-01T17:53:37;9.90;50.00
35299;DHT22;21415;48.054;16.646;2022-12-01T17:56:08;9.80;50.00
35299;DHT22;21415;48.054;16.646;2022-12-01T17:58:35;9.80;50.00
35299;DHT22;21415;48.054;16.646;2022-12-01T18:01:01;9.70;50.00
35299;DHT22;21415;48.054;16.646;2022-12-01T18:03:26;9.70;49.90